Time;durP1;ratioP1;P1;durP2;ratioP2;P2;SDS_P1;SDS_P2;PMS_P1;PMS_P2;Temp;Humidity;BMP_temperature;BMP_pressure;BME280_temperature;BME280_humidity;BME280_pressure;Samples;Min_cycle;Max_cycle;Signal;HPM_P1;HPM_P2
2023/06/21 00:00:36;;;;;;;28.25;25.13;;;;;;;;;;4926589;28;20724;-82
2023/06/21 00:03:04;;;;;;;32.65;25.45;;;;;;;;;;4929200;28;20448;-83
2023/06/21 00:05:30;;;;;;;29.33;25.95;;;;;;;;;;4916423;28;20091;-82
2023/06/21 00:07:56;;;;;;;27.73;24.70;;;;;;;;;;4916216;28;20488;-84
2023/06/21 00:10:23;;;;;;;27.33;24.42;;;;;;;;;;4931542;28;20118;-85
2023/06/21 00:12:51;;;;;;;28.52;25.02;;;;;;;;;;4933609;28;20031;-84
2023/06/21 00:15:17;;;;;;;30.70;26.73;;;;;;;;;;4934990;28;20036;-83
2023/06/21 00:17:43;;;;;;;30.58;25.10;;;;;;;;;;4903787;28;20071;-84
2023/06/21 00:20:10;;;;;;;29.13;25.48;;;;;;;;;;4918458;28;20067;-83
2023/06/21 00:22:36;;;;;;;29.65;24.70;;;;;;;;;;4920951;28;20036;-83
2023/06/21 00:25:08;;;;;;;29.10;24.73;;;;;;;;;;4904357;29;20407;-82
2023/06/21 00:27:37;;;;;;;29.48;26.30;;;;;;;;;;4905009;29;20044;-82
2023/06/21 00:30:03;;;;;;;29.85;25.85;;;;;;;;;;4919617;29;20135;-83
2023/06/21 00:32:31;;;;;;;27.85;24.85;;;;;;;;;;4919687;28;20032;-83
2023/06/21 00:34:57;;;;;;;28.60;25.23;;;;;;;;;;4903104;29;20031;-86
2023/06/21 00:37:22;;;;;;;28.17;25.02;;;;;;;;;;4910671;28;20142;-83
2023/06/21 00:39:48;;;;;;;28.20;25.15;;;;;;;;;;4917198;28;20036;-84
2023/06/21 00:42:13;;;;;;;30.27;25.83;;;;;;;;;;4914982;28;20079;-83
2023/06/21 00:44:39;;;;;;;29.63;25.95;;;;;;;;;;4931484;28;20031;-83
2023/06/21 00:47:05;;;;;;;27.95;24.45;;;;;;;;;;4932826;28;20039;-85
2023/06/21 00:49:31;;;;;;;29.42;24.85;;;;;;;;;;4900332;29;20400;-85
2023/06/21 00:51:59;;;;;;;30.92;25.65;;;;;;;;;;4919737;28;20487;-84
2023/06/21 00:54:26;;;;;;;28.42;25.40;;;;;;;;;;4904504;28;20043;-82
2023/06/21 00:56:53;;;;;;;28.75;25.40;;;;;;;;;;4916524;28;20051;-83
2023/06/21 00:59:19;;;;;;;28.60;25.50;;;;;;;;;;4908910;28;20031;-83
2023/06/21 01:01:45;;;;;;;29.33;25.92;;;;;;;;;;4908449;28;20570;-82
2023/06/21 01:04:11;;;;;;;29.48;26.08;;;;;;;;;;4915898;28;20066;-83
2023/06/21 01:07:01;;;;;;;28.42;25.38;;;;;;;;;;4916014;29;20054;-83
2023/06/21 01:10:05;;;;;;;29.83;25.77;;;;;;;;;;4918881;28;20150;-83
2023/06/21 01:12:43;;;;;;;28.08;23.88;;;;;;;;;;4924084;28;20040;-82
2023/06/21 01:15:36;;;;;;;29.58;24.52;;;;;;;;;;4932990;28;20113;-83
2023/06/21 01:18:06;;;;;;;28.08;24.05;;;;;;;;;;4911657;29;20043;-83
2023/06/21 01:20:34;;;;;;;28.13;25.08;;;;;;;;;;4931039;28;20355;-83
2023/06/21 01:23:18;;;;;;;;;;;;;;;;;;4912729;29;20044;-83
2023/06/21 01:26:06;;;;;;;28.73;23.92;;;;;;;;;;4930316;28;19921;-82
2023/06/21 01:29:10;;;;;;;27.25;24.25;;;;;;;;;;4918432;28;20132;-83
2023/06/21 01:31:40;;;;;;;27.30;24.02;;;;;;;;;;4912305;28;20113;-83
2023/06/21 01:34:08;;;;;;;27.65;24.35;;;;;;;;;;4916432;28;20044;-83
2023/06/21 01:36:34;;;;;;;27.08;24.17;;;;;;;;;;4926323;28;20031;-83
2023/06/21 01:39:00;;;;;;;27.33;24.30;;;;;;;;;;4911857;29;20091;-82
2023/06/21 01:41:26;;;;;;;26.93;24.00;;;;;;;;;;4915744;28;20047;-82
2023/06/21 01:43:52;;;;;;;27.48;24.45;;;;;;;;;;4896244;28;20036;-83
2023/06/21 01:46:22;;;;;;;26.17;23.38;;;;;;;;;;4909837;28;20535;-83
2023/06/21 01:48:48;;;;;;;26.70;23.90;;;;;;;;;;4906534;28;20562;-83
2023/06/21 01:51:15;;;;;;;26.23;23.50;;;;;;;;;;4910686;28;20513;-82
2023/06/21 01:53:41;;;;;;;27.25;24.35;;;;;;;;;;4916307;28;20043;-83
2023/06/21 01:56:09;;;;;;;28.13;23.98;;;;;;;;;;4918934;28;20031;-83
2023/06/21 01:58:34;;;;;;;26.88;24.00;;;;;;;;;;4909247;28;20432;-82
2023/06/21 02:01:02;;;;;;;27.65;24.48;;;;;;;;;;4902266;29;20091;-83
2023/06/21 02:03:28;;;;;;;27.92;24.90;;;;;;;;;;4910539;28;20051;-83
2023/06/21 02:05:55;;;;;;;27.80;24.23;;;;;;;;;;4892639;28;20036;-83
2023/06/21 02:08:21;;;;;;;28.95;24.23;;;;;;;;;;4920835;28;20129;-83
2023/06/21 02:10:47;;;;;;;26.60;23.70;;;;;;;;;;4902859;28;20027;-82
2023/06/21 02:13:16;;;;;;;27.52;24.52;;;;;;;;;;4893236;28;20039;-84
2023/06/21 02:15:42;;;;;;;27.50;24.25;;;;;;;;;;4910367;28;20037;-83
2023/06/21 02:18:09;;;;;;;28.70;25.60;;;;;;;;;;4927399;28;20440;-83
2023/06/21 02:20:35;;;;;;;31.05;26.38;;;;;;;;;;4910007;28;20134;-82
2023/06/21 02:23:01;;;;;;;32.47;26.63;;;;;;;;;;4919843;29;20039;-82
2023/06/21 02:25:27;;;;;;;30.10;26.85;;;;;;;;;;4928307;28;20047;-82
2023/06/21 02:27:52;;;;;;;33.00;27.15;;;;;;;;;;4914639;28;20059;-82
2023/06/21 02:30:18;;;;;;;33.90;29.50;;;;;;;;;;4930886;28;20040;-81
2023/06/21 02:32:43;;;;;;;34.65;29.63;;;;;;;;;;4912507;28;20067;-83
2023/06/21 02:35:09;;;;;;;36.70;29.85;;;;;;;;;;4907466;28;20481;-83
2023/06/21 02:37:38;;;;;;;42.00;32.28;;;;;;;;;;4915914;29;20051;-83
2023/06/21 02:40:09;;;;;;;38.42;31.90;;;;;;;;;;4919566;28;20070;-83
2023/06/21 02:42:36;;;;;;;37.80;32.67;;;;;;;;;;4916978;28;20043;-85
2023/06/21 02:45:01;;;;;;;41.90;33.28;;;;;;;;;;4915249;29;20031;-83
2023/06/21 02:47:27;;;;;;;42.83;34.80;;;;;;;;;;4900830;28;20531;-83
2023/06/21 02:49:52;;;;;;;40.47;33.45;;;;;;;;;;4908551;28;20510;-85
2023/06/21 02:52:17;;;;;;;40.28;34.22;;;;;;;;;;4907862;28;20090;-83
2023/06/21 02:54:43;;;;;;;41.30;34.15;;;;;;;;;;4914060;28;20032;-84
2023/06/21 02:57:08;;;;;;;39.47;33.40;;;;;;;;;;4914795;28;20044;-86
2023/06/21 02:59:35;;;;;;;42.38;35.42;;;;;;;;;;4906283;29;20062;-83
2023/06/21 03:02:01;;;;;;;41.60;34.78;;;;;;;;;;4903415;29;20039;-83
2023/06/21 03:04:26;;;;;;;42.92;35.97;;;;;;;;;;4921796;28;20034;-83
2023/06/21 03:06:51;;;;;;;45.55;36.10;;;;;;;;;;4911736;28;20039;-84
2023/06/21 03:09:17;;;;;;;47.03;37.83;;;;;;;;;;4901537;28;20119;-84
2023/06/21 03:11:42;;;;;;;44.28;35.80;;;;;;;;;;4914274;28;20035;-82
2023/06/21 03:14:08;;;;;;;44.65;35.97;;;;;;;;;;4925984;28;20039;-83
2023/06/21 03:16:33;;;;;;;42.47;34.85;;;;;;;;;;4918260;29;20550;-83
2023/06/21 03:19:02;;;;;;;44.33;36.70;;;;;;;;;;4908468;29;20126;-82
2023/06/21 03:21:27;;;;;;;44.83;36.92;;;;;;;;;;4918080;28;20036;-83
2023/06/21 03:23:53;;;;;;;44.53;36.17;;;;;;;;;;4916499;28;20614;-85
2023/06/21 03:26:20;;;;;;;46.15;36.47;;;;;;;;;;4926879;28;20039;-82
2023/06/21 03:28:46;;;;;;;;;;;;;;;;;;4921688;28;20472;-83
2023/06/21 03:31:11;;;;;;;44.53;36.85;;;;;;;;;;4934144;29;19997;-82
2023/06/21 03:33:36;;;;;;;45.28;36.38;;;;;;;;;;4918072;28;20557;-83
2023/06/21 03:36:03;;;;;;;44.33;37.10;;;;;;;;;;4922506;29;20074;-82
2023/06/21 03:38:29;;;;;;;47.42;38.33;;;;;;;;;;4912711;28;20035;-82
2023/06/21 03:40:54;;;;;;;45.95;37.45;;;;;;;;;;4919532;28;20047;-82
2023/06/21 03:43:20;;;;;;;43.95;37.20;;;;;;;;;;4932662;28;20050;-83
2023/06/21 03:45:45;;;;;;;45.00;36.63;;;;;;;;;;4904106;28;20036;-83
2023/06/21 03:48:11;;;;;;;43.78;37.22;;;;;;;;;;4918022;28;20768;-82
2023/06/21 03:50:36;;;;;;;44.85;37.08;;;;;;;;;;4918358;28;20035;-84
2023/06/21 03:53:03;;;;;;;45.92;37.83;;;;;;;;;;4932735;29;20451;-83
2023/06/21 03:55:28;;;;;;;45.58;37.28;;;;;;;;;;4908884;28;20094;-82
2023/06/21 03:57:54;;;;;;;43.83;36.33;;;;;;;;;;4932707;28;20044;-83
2023/06/21 04:00:40;;;;;;;40.33;35.10;;;;;;;;;;4916215;28;20504;-85
2023/06/21 04:03:05;;;;;;;43.05;35.40;;;;;;;;;;4895661;29;20068;-85
2023/06/21 04:05:30;;;;;;;42.60;36.17;;;;;;;;;;4881445;29;20152;-83
2023/06/21 04:07:58;;;;;;;42.17;36.30;;;;;;;;;;4871066;29;20534;-83
2023/06/21 04:10:24;;;;;;;;;;;;;;;;;;4881930;29;20043;-83
2023/06/21 04:12:49;;;;;;;45.38;35.90;;;;;;;;;;4867695;29;19918;-84
2023/06/21 04:15:16;;;;;;;45.05;36.83;;;;;;;;;;4884019;29;20043;-83
2023/06/21 04:17:42;;;;;;;48.23;38.30;;;;;;;;;;4882509;29;20036;-83
2023/06/21 04:20:13;;;;;;;44.70;37.83;;;;;;;;;;4884117;29;20291;-84
2023/06/21 04:22:40;;;;;;;43.30;36.55;;;;;;;;;;4871744;29;20032;-84
2023/06/21 04:25:07;;;;;;;49.25;40.83;;;;;;;;;;4893683;29;20044;-84
2023/06/21 04:27:32;;;;;;;46.97;39.13;;;;;;;;;;4879281;29;20612;-84
2023/06/21 04:29:59;;;;;;;47.92;39.50;;;;;;;;;;4886879;29;20053;-84
2023/06/21 04:32:24;;;;;;;47.58;39.67;;;;;;;;;;4870605;29;20090;-83
2023/06/21 04:34:50;;;;;;;50.67;40.78;;;;;;;;;;4881731;29;20047;-84
2023/06/21 04:37:18;;;;;;;47.38;40.00;;;;;;;;;;4879326;29;20047;-84
2023/06/21 04:39:45;;;;;;;46.60;39.38;;;;;;;;;;4890924;28;20431;-83
2023/06/21 04:42:11;;;;;;;47.25;40.75;;;;;;;;;;4916431;28;20040;-85
2023/06/21 04:44:36;;;;;;;46.03;39.65;;;;;;;;;;4919520;28;20050;-84
2023/06/21 04:47:05;;;;;;;45.47;39.42;;;;;;;;;;4914523;29;20039;-86
2023/06/21 04:49:30;;;;;;;46.15;39.42;;;;;;;;;;4904263;29;20086;-82
2023/06/21 04:51:57;;;;;;;47.15;39.17;;;;;;;;;;4904443;28;20066;-88
2023/06/21 04:54:24;;;;;;;46.72;39.70;;;;;;;;;;4918367;28;20035;-88
2023/06/21 04:56:50;;;;;;;49.37;40.93;;;;;;;;;;4915329;28;20032;-88
2023/06/21 04:59:16;;;;;;;46.67;39.58;;;;;;;;;;4916983;28;20492;-85
2023/06/21 05:01:45;;;;;;;44.90;38.85;;;;;;;;;;4921677;28;20082;-84
2023/06/21 05:04:13;;;;;;;48.00;39.63;;;;;;;;;;4914220;28;20103;-91
2023/06/21 05:06:40;;;;;;;46.10;40.17;;;;;;;;;;4919843;28;20573;-90
2023/06/21 05:09:06;;;;;;;48.83;41.47;;;;;;;;;;4934022;28;20558;-88
2023/06/21 05:11:31;;;;;;;46.38;39.50;;;;;;;;;;4912782;29;20032;-91
2023/06/21 05:13:57;;;;;;;46.45;38.90;;;;;;;;;;4925326;28;20041;-90
2023/06/21 05:16:25;;;;;;;45.95;38.75;;;;;;;;;;4903147;29;20047;-91
2023/06/21 05:18:50;;;;;;;48.45;40.47;;;;;;;;;;4932456;28;20035;-92
2023/06/21 05:21:16;;;;;;;44.20;39.33;;;;;;;;;;4919685;28;20037;-90
2023/06/21 05:23:55;;;;;;;44.33;37.95;;;;;;;;;;4908294;28;20071;-86
2023/06/21 05:26:21;;;;;;;42.03;37.20;;;;;;;;;;4901618;28;20834;-85
2023/06/21 05:32:26;;;;;;;42.08;36.92;;;;;;;;;;4853942;29;20041;-85
2023/06/21 05:34:53;;;;;;;41.92;36.40;;;;;;;;;;4910594;28;20486;-85
2023/06/21 05:37:18;;;;;;;41.33;35.78;;;;;;;;;;4901990;28;20045;-86
2023/06/21 05:39:44;;;;;;;41.40;35.40;;;;;;;;;;4917674;28;20423;-85
2023/06/21 05:42:10;;;;;;;41.65;35.88;;;;;;;;;;4915068;28;20638;-85
2023/06/21 05:44:35;;;;;;;44.35;37.25;;;;;;;;;;4934635;28;20039;-85
2023/06/21 05:47:00;;;;;;;43.00;35.85;;;;;;;;;;4909150;28;20039;-85
2023/06/21 05:49:26;;;;;;;42.45;34.22;;;;;;;;;;4915810;28;20055;-84
2023/06/21 05:51:51;;;;;;;38.92;34.63;;;;;;;;;;4931412;28;20880;-85
2023/06/21 05:54:16;;;;;;;40.10;34.17;;;;;;;;;;4931058;28;20460;-84
2023/06/21 05:56:42;;;;;;;39.95;33.50;;;;;;;;;;4930198;28;20031;-85
2023/06/21 05:59:10;;;;;;;37.30;32.67;;;;;;;;;;4906141;28;20491;-85
2023/06/21 06:01:39;;;;;;;40.45;33.97;;;;;;;;;;4915659;28;20543;-85
2023/06/21 06:04:04;;;;;;;36.63;32.65;;;;;;;;;;4932247;28;20501;-85
2023/06/21 06:06:40;;;;;;;37.50;32.88;;;;;;;;;;4908996;29;20125;-85
2023/06/21 06:09:07;;;;;;;40.03;33.90;;;;;;;;;;4908243;28;20039;-86
2023/06/21 06:11:38;;;;;;;38.50;33.88;;;;;;;;;;4896652;29;20418;-85
2023/06/21 06:14:14;;;;;;;38.50;32.25;;;;;;;;;;4902613;29;20040;-85
2023/06/21 06:20:45;;;;;;;32.20;28.70;;;;;;;;;;4936367;28;20049;-85
2023/06/21 06:23:11;;;;;;;35.95;29.38;;;;;;;;;;4917414;28;20071;-84
2023/06/21 06:26:00;;;;;;;33.60;29.92;;;;;;;;;;4898875;28;20059;-85
2023/06/21 06:28:25;;;;;;;32.13;28.58;;;;;;;;;;4918469;28;20102;-84
2023/06/21 06:30:50;;;;;;;28.70;25.38;;;;;;;;;;4911960;28;20043;-85
2023/06/21 06:33:16;;;;;;;28.00;24.98;;;;;;;;;;4932017;28;20042;-85
2023/06/21 06:35:41;;;;;;;26.85;23.98;;;;;;;;;;4917692;28;20040;-85
2023/06/21 06:38:09;;;;;;;28.02;24.90;;;;;;;;;;4908724;28;20046;-85
2023/06/21 06:40:57;;;;;;;29.50;23.50;;;;;;;;;;4894387;28;20035;-86
2023/06/21 06:43:54;;;;;;;25.63;22.60;;;;;;;;;;4893225;29;20046;-85
2023/06/21 06:46:28;;;;;;;24.45;21.30;;;;;;;;;;4814792;29;20047;-85
2023/06/21 06:49:21;;;;;;;27.60;21.67;;;;;;;;;;4848823;29;20044;-85
2023/06/21 06:52:06;;;;;;;25.52;21.42;;;;;;;;;;4888730;28;20395;-85
2023/06/21 06:58:30;;;;;;;;;;;;;;;;;;;;;
2023/06/21 07:01:14;;;;;;;21.10;18.38;;;;;;;;;;4920509;28;20046;-85
2023/06/21 07:03:50;;;;;;;18.77;16.45;;;;;;;;;;4866820;29;20504;-85
2023/06/21 07:06:21;;;;;;;21.67;17.98;;;;;;;;;;4849363;29;20032;-85
2023/06/21 07:09:26;;;;;;;;;;;;;;;;;;;;;
2023/06/21 07:19:38;;;;;;;16.52;14.38;;;;;;;;;;4798536;29;20052;-85
2023/06/21 07:22:44;;;;;;;15.05;13.30;;;;;;;;;;4818036;29;20057;-85
2023/06/21 07:25:11;;;;;;;15.75;14.05;;;;;;;;;;4825370;29;21401;-85
2023/06/21 07:34:29;;;;;;;16.52;14.75;;;;;;;;;;4781238;29;21011;-84
2023/06/21 07:37:49;;;;;;;;;;;;;;;;;;;;;
2023/06/21 07:40:21;;;;;;;17.85;14.82;;;;;;;;;;4882100;28;20817;-86
2023/06/21 07:43:11;;;;;;;15.77;13.80;;;;;;;;;;4914588;28;20122;-85
2023/06/21 07:45:59;;;;;;;16.90;13.88;;;;;;;;;;4899913;28;20031;-85
2023/06/21 07:48:37;;;;;;;16.35;13.38;;;;;;;;;;4862801;29;20103;-85
2023/06/21 07:54:20;;;;;;;16.15;13.60;;;;;;;;;;4832358;29;20042;-86
2023/06/21 07:56:45;;;;;;;15.82;13.20;;;;;;;;;;4894571;28;20043;-86
2023/06/21 07:59:11;;;;;;;14.85;12.98;;;;;;;;;;4918547;28;20118;-86
2023/06/21 08:01:36;;;;;;;14.23;12.30;;;;;;;;;;4932366;28;20036;-86
2023/06/21 08:04:28;;;;;;;13.07;11.60;;;;;;;;;;4919064;29;20047;-86
2023/06/21 08:07:04;;;;;;;15.40;11.10;;;;;;;;;;4934538;28;20129;-86
2023/06/21 08:10:33;;;;;;;;;;;;;;;;;;;;;
2023/06/21 08:13:27;;;;;;;11.30;9.98;;;;;;;;;;4881505;28;20689;-85
2023/06/21 08:15:52;;;;;;;11.35;9.88;;;;;;;;;;4921867;28;20162;-85
2023/06/21 08:19:00;;;;;;;;;;;;;;;;;;;;;
2023/06/21 08:22:24;;;;;;;10.00;8.43;;;;;;;;;;4922063;28;20618;-86
2023/06/21 08:25:01;;;;;;;9.73;8.65;;;;;;;;;;4851882;29;20041;-87
2023/06/21 08:27:30;;;;;;;10.52;8.00;;;;;;;;;;4843298;29;20394;-84
2023/06/21 08:29:56;;;;;;;8.73;7.82;;;;;;;;;;4854796;29;20048;-85
2023/06/21 08:32:50;;;;;;;10.82;7.90;;;;;;;;;;4848981;29;20524;-85
2023/06/21 08:35:49;;;;;;;9.32;7.95;;;;;;;;;;4837401;29;20481;-84
2023/06/21 08:38:14;;;;;;;9.45;7.45;;;;;;;;;;4835757;29;20041;-85
2023/06/21 08:40:42;;;;;;;9.98;7.30;;;;;;;;;;4837390;29;20513;-86
2023/06/21 08:46:12;;;;;;;8.52;6.80;;;;;;;;;;4864685;29;20837;-86
2023/06/21 08:48:40;;;;;;;8.52;6.63;;;;;;;;;;4846667;29;20048;-86
2023/06/21 08:51:05;;;;;;;8.07;6.57;;;;;;;;;;4882259;29;20055;-85
2023/06/21 08:54:09;;;;;;;7.70;6.22;;;;;;;;;;4853608;29;20040;-86
2023/06/21 08:57:20;;;;;;;10.52;7.00;;;;;;;;;;4839300;29;20116;-86
2023/06/21 09:00:12;;;;;;;10.30;6.45;;;;;;;;;;4866222;29;20494;-85
2023/06/21 09:02:47;;;;;;;6.97;5.88;;;;;;;;;;4893472;28;21198;-86
2023/06/21 09:05:36;;;;;;;7.82;5.80;;;;;;;;;;4898740;28;20484;-85
2023/06/21 09:08:07;;;;;;;7.40;5.47;;;;;;;;;;4905299;29;20047;-85
2023/06/21 09:10:34;;;;;;;9.45;5.88;;;;;;;;;;4892933;28;20049;-86
2023/06/21 09:13:02;;;;;;;6.28;5.53;;;;;;;;;;4902732;28;20032;-86
2023/06/21 09:15:29;;;;;;;6.72;5.20;;;;;;;;;;4893841;28;20055;-86
2023/06/21 09:18:10;;;;;;;;;;;;;;;;;;;;;
2023/06/21 09:20:40;;;;;;;8.85;5.20;;;;;;;;;;4910444;28;21401;-86
2023/06/21 09:23:06;;;;;;;6.95;5.30;;;;;;;;;;4901299;29;20519;-85
2023/06/21 09:25:58;;;;;;;8.10;5.45;;;;;;;;;;4925071;28;20039;-86
2023/06/21 09:28:23;;;;;;;5.68;5.07;;;;;;;;;;4856358;29;20044;-85
2023/06/21 09:31:10;;;;;;;5.32;4.55;;;;;;;;;;4860364;29;20136;-87
2023/06/21 09:33:36;;;;;;;;;;;;;;;;;;4879454;29;20044;-85
2023/06/21 09:36:14;;;;;;;5.15;4.45;;;;;;;;;;4885260;29;20605;-86
2023/06/21 09:38:40;;;;;;;5.93;4.70;;;;;;;;;;4869103;29;20059;-85
2023/06/21 09:41:10;;;;;;;6.55;5.10;;;;;;;;;;4862549;29;20041;-86
2023/06/21 09:43:41;;;;;;;5.28;4.43;;;;;;;;;;4870505;29;20571;-86
2023/06/21 09:46:09;;;;;;;6.07;4.55;;;;;;;;;;4862546;29;20037;-85
2023/06/21 09:48:41;;;;;;;6.68;4.50;;;;;;;;;;4862285;29;20040;-85
2023/06/21 09:51:11;;;;;;;5.63;4.63;;;;;;;;;;4852189;29;20045;-85
2023/06/21 09:53:56;;;;;;;6.50;4.32;;;;;;;;;;4862378;29;20032;-85
2023/06/21 09:56:22;;;;;;;5.10;4.00;;;;;;;;;;4855907;29;20040;-85
2023/06/21 09:59:20;;;;;;;5.80;4.50;;;;;;;;;;4846433;29;20051;-85
2023/06/21 10:01:50;;;;;;;5.63;4.65;;;;;;;;;;4851975;29;20041;-86
2023/06/21 10:04:19;;;;;;;6.70;4.75;;;;;;;;;;4853964;28;20066;-85
2023/06/21 10:06:54;;;;;;;6.22;4.20;;;;;;;;;;4909599;28;20074;-85
2023/06/21 10:09:19;;;;;;;5.93;4.00;;;;;;;;;;4931650;28;20043;-86
2023/06/21 10:11:44;;;;;;;5.85;3.95;;;;;;;;;;4915296;28;20507;-86
2023/06/21 10:14:25;;;;;;;5.20;4.00;;;;;;;;;;4915824;28;20140;-86
2023/06/21 10:16:57;;;;;;;5.10;4.18;;;;;;;;;;4912625;28;20074;-85
2023/06/21 10:19:31;;;;;;;5.00;3.72;;;;;;;;;;4904802;28;20083;-85
2023/06/21 10:22:26;;;;;;;6.07;3.40;;;;;;;;;;4885495;28;20060;-84
2023/06/21 10:25:10;;;;;;;6.30;3.65;;;;;;;;;;4917668;28;20051;-86
2023/06/21 10:27:48;;;;;;;5.18;3.58;;;;;;;;;;4898606;29;20084;-84
2023/06/21 10:30:19;;;;;;;5.03;3.45;;;;;;;;;;4921244;28;20097;-84
2023/06/21 10:32:50;;;;;;;5.72;3.83;;;;;;;;;;4931872;28;20040;-85
2023/06/21 10:35:19;;;;;;;5.38;3.80;;;;;;;;;;4900528;28;20035;-84
2023/06/21 10:40:47;;;;;;;4.45;3.40;;;;;;;;;;4905213;28;20123;-84
2023/06/21 10:43:13;;;;;;;7.10;3.95;;;;;;;;;;4908264;28;20058;-84
2023/06/21 10:45:58;;;;;;;7.35;3.70;;;;;;;;;;4903452;28;20661;-84
2023/06/21 10:48:25;;;;;;;5.60;4.20;;;;;;;;;;4918341;28;20506;-85
2023/06/21 10:50:51;;;;;;;5.18;3.50;;;;;;;;;;4918136;28;20040;-85
2023/06/21 10:53:18;;;;;;;4.68;3.45;;;;;;;;;;4917435;28;20035;-84
2023/06/21 10:55:46;;;;;;;5.38;3.47;;;;;;;;;;4909344;28;20110;-85
2023/06/21 10:58:13;;;;;;;8.25;3.60;;;;;;;;;;4930518;28;20046;-85
2023/06/21 11:00:39;;;;;;;5.13;3.35;;;;;;;;;;4918484;28;20046;-85
2023/06/21 11:03:12;;;;;;;5.38;3.30;;;;;;;;;;4931689;28;20552;-84
2023/06/21 11:05:38;;;;;;;5.50;3.00;;;;;;;;;;4910583;28;20043;-85
2023/06/21 11:08:16;;;;;;;4.95;3.03;;;;;;;;;;4899140;29;20047;-86
2023/06/21 11:10:43;;;;;;;5.50;3.03;;;;;;;;;;4893386;28;20031;-85
2023/06/21 11:13:10;;;;;;;4.28;3.03;;;;;;;;;;4948391;28;20032;-83
2023/06/21 11:15:45;;;;;;;4.38;3.05;;;;;;;;;;4917051;28;20039;-86
2023/06/21 11:18:18;;;;;;;5.68;3.45;;;;;;;;;;4932257;28;20111;-83
2023/06/21 11:20:49;;;;;;;4.93;2.92;;;;;;;;;;4917236;28;20111;-84
2023/06/21 11:23:17;;;;;;;4.97;3.00;;;;;;;;;;4930618;28;20066;-84
2023/06/21 11:26:12;;;;;;;4.57;3.03;;;;;;;;;;4916249;28;20440;-85
2023/06/21 11:28:43;;;;;;;4.00;2.90;;;;;;;;;;4938741;28;20032;-85
2023/06/21 11:31:17;;;;;;;4.35;3.38;;;;;;;;;;4908796;28;20040;-85
2023/06/21 11:33:53;;;;;;;5.38;3.20;;;;;;;;;;4900887;28;20071;-85
2023/06/21 11:36:27;;;;;;;4.53;3.03;;;;;;;;;;4922425;28;20796;-86
2023/06/21 11:38:58;;;;;;;4.85;3.20;;;;;;;;;;4896412;28;20486;-86
2023/06/21 11:41:34;;;;;;;4.90;3.40;;;;;;;;;;4930825;28;20039;-85
2023/06/21 11:43:59;;;;;;;4.85;3.20;;;;;;;;;;4920353;28;20043;-84
2023/06/21 11:46:25;;;;;;;6.38;3.65;;;;;;;;;;4909547;28;20046;-85
2023/06/21 11:49:01;;;;;;;6.03;3.72;;;;;;;;;;4919977;28;20049;-85
2023/06/21 11:51:29;;;;;;;5.30;3.40;;;;;;;;;;4932287;28;20795;-85
2023/06/21 11:53:55;;;;;;;5.38;3.72;;;;;;;;;;4922209;28;20098;-86
2023/06/21 11:56:21;;;;;;;5.13;3.50;;;;;;;;;;4918084;28;20039;-85
2023/06/21 11:58:48;;;;;;;4.60;3.60;;;;;;;;;;4915980;28;20032;-85
2023/06/21 12:01:14;;;;;;;4.68;3.40;;;;;;;;;;4911569;28;20561;-85
2023/06/21 12:03:40;;;;;;;4.10;3.37;;;;;;;;;;4931943;28;20052;-86
2023/06/21 12:06:06;;;;;;;4.80;3.50;;;;;;;;;;4921784;29;20287;-85
2023/06/21 12:08:35;;;;;;;4.53;3.20;;;;;;;;;;4910086;28;20566;-85
2023/06/21 12:11:06;;;;;;;5.40;3.08;;;;;;;;;;4917408;29;20031;-85
2023/06/21 12:13:37;;;;;;;6.07;3.15;;;;;;;;;;4932295;28;20523;-84
2023/06/21 12:16:07;;;;;;;4.30;3.25;;;;;;;;;;4922615;28;20503;-84
2023/06/21 12:18:36;;;;;;;4.45;3.10;;;;;;;;;;4903214;29;20035;-86
2023/06/21 12:21:03;;;;;;;4.40;2.80;;;;;;;;;;4896788;29;20106;-85
2023/06/21 12:23:29;;;;;;;4.85;3.03;;;;;;;;;;4908174;28;20078;-86
2023/06/21 12:26:05;;;;;;;3.97;2.75;;;;;;;;;;4920070;28;20098;-85
2023/06/21 12:28:31;;;;;;;5.13;2.80;;;;;;;;;;4903893;29;20526;-84
2023/06/21 12:31:01;;;;;;;4.32;3.00;;;;;;;;;;4919711;28;20094;-84
2023/06/21 12:33:29;;;;;;;3.80;2.70;;;;;;;;;;4910954;28;20039;-83
2023/06/21 12:36:33;;;;;;;5.97;3.40;;;;;;;;;;4917502;28;20042;-84
2023/06/21 12:39:00;;;;;;;4.85;3.03;;;;;;;;;;4905729;28;20599;-83
2023/06/21 12:41:50;;;;;;;5.10;3.20;;;;;;;;;;4911808;28;20933;-83
2023/06/21 12:44:23;;;;;;;5.97;3.28;;;;;;;;;;4932565;28;20039;-84
2023/06/21 12:47:01;;;;;;;4.05;2.90;;;;;;;;;;4917364;28;20513;-83
2023/06/21 12:49:26;;;;;;;4.80;3.00;;;;;;;;;;4936784;28;21923;-83
2023/06/21 12:51:52;;;;;;;5.22;3.30;;;;;;;;;;4917653;28;20048;-83
2023/06/21 12:54:19;;;;;;;4.13;2.72;;;;;;;;;;4921132;28;20062;-83
2023/06/21 12:56:50;;;;;;;4.57;3.03;;;;;;;;;;4921066;28;20079;-82
2023/06/21 12:59:29;;;;;;;5.20;3.00;;;;;;;;;;4904346;28;20561;-83
2023/06/21 13:01:55;;;;;;;3.97;2.92;;;;;;;;;;4911969;28;20106;-84
2023/06/21 13:04:21;;;;;;;5.57;2.88;;;;;;;;;;4934000;28;20332;-85
2023/06/21 13:06:46;;;;;;;4.65;3.15;;;;;;;;;;4916032;28;20040;-84
2023/06/21 13:09:12;;;;;;;6.63;3.00;;;;;;;;;;4917346;28;20091;-84
2023/06/21 13:11:38;;;;;;;4.80;3.33;;;;;;;;;;4924945;28;20031;-84
2023/06/21 13:14:05;;;;;;;4.70;3.13;;;;;;;;;;4916987;29;20500;-82
2023/06/21 13:16:31;;;;;;;4.07;2.90;;;;;;;;;;4907203;28;20035;-83
2023/06/21 13:18:56;;;;;;;5.90;3.33;;;;;;;;;;4908227;29;20086;-84
2023/06/21 13:21:23;;;;;;;5.95;2.83;;;;;;;;;;4924823;28;20040;-84
2023/06/21 13:23:54;;;;;;;4.20;3.10;;;;;;;;;;4910642;28;20063;-85
2023/06/21 13:26:19;;;;;;;4.22;2.88;;;;;;;;;;4914915;28;20120;-81
2023/06/21 13:28:45;;;;;;;4.85;2.25;;;;;;;;;;4916680;28;20131;-85
2023/06/21 13:31:12;;;;;;;4.93;2.47;;;;;;;;;;4919123;28;20035;-84
2023/06/21 13:33:38;;;;;;;5.70;2.65;;;;;;;;;;4914896;28;20443;-83
2023/06/21 13:36:04;;;;;;;4.13;2.60;;;;;;;;;;4905459;29;20039;-83
2023/06/21 13:38:33;;;;;;;3.93;2.47;;;;;;;;;;4930163;28;20483;-82
2023/06/21 13:40:59;;;;;;;3.55;2.40;;;;;;;;;;4930843;28;20047;-83
2023/06/21 13:43:29;;;;;;;3.13;2.15;;;;;;;;;;4916029;29;20142;-83
2023/06/21 13:45:54;;;;;;;3.80;2.65;;;;;;;;;;4919010;28;20039;-84
2023/06/21 13:48:20;;;;;;;3.80;2.60;;;;;;;;;;4916969;28;20043;-83
2023/06/21 13:50:54;;;;;;;3.30;2.33;;;;;;;;;;4912357;28;20035;-83
2023/06/21 13:53:21;;;;;;;4.28;2.85;;;;;;;;;;4918980;28;20062;-83
2023/06/21 13:55:56;;;;;;;;;;;;;;;;;;;;;
2023/06/21 13:58:23;;;;;;;3.67;2.53;;;;;;;;;;4930674;28;20370;-83
2023/06/21 14:00:49;;;;;;;4.88;2.90;;;;;;;;;;4902134;29;20121;-82
2023/06/21 14:03:16;;;;;;;4.68;2.95;;;;;;;;;;4928810;28;20813;-83
2023/06/21 14:05:42;;;;;;;3.88;2.90;;;;;;;;;;4917234;28;20146;-83
2023/06/21 14:08:07;;;;;;;4.10;3.05;;;;;;;;;;4929818;28;20131;-83
2023/06/21 14:10:38;;;;;;;4.65;3.20;;;;;;;;;;4888221;29;20041;-83
2023/06/21 14:13:04;;;;;;;4.55;3.30;;;;;;;;;;4902992;29;20487;-83
2023/06/21 14:15:35;;;;;;;6.57;2.80;;;;;;;;;;4913018;28;20042;-83
2023/06/21 14:18:02;;;;;;;4.20;3.05;;;;;;;;;;4907834;28;20492;-84
2023/06/21 14:20:28;;;;;;;5.15;3.55;;;;;;;;;;4931658;28;20105;-83
2023/06/21 14:22:56;;;;;;;4.28;3.10;;;;;;;;;;4907685;28;20134;-83
2023/06/21 14:25:22;;;;;;;5.13;3.70;;;;;;;;;;4918914;28;20187;-82
2023/06/21 14:27:47;;;;;;;5.15;3.28;;;;;;;;;;4915086;28;20047;-82
2023/06/21 14:30:14;;;;;;;4.80;3.70;;;;;;;;;;4914286;28;20130;-83
2023/06/21 14:32:40;;;;;;;4.88;3.40;;;;;;;;;;4899730;28;20082;-83
2023/06/21 14:35:14;;;;;;;5.28;3.60;;;;;;;;;;4909624;29;20043;-83
2023/06/21 14:37:43;;;;;;;5.70;3.50;;;;;;;;;;4912968;28;20496;-82
2023/06/21 14:40:09;;;;;;;4.82;3.20;;;;;;;;;;4933355;28;20040;-82
2023/06/21 14:42:34;;;;;;;4.80;3.15;;;;;;;;;;4909399;28;20062;-82
2023/06/21 14:44:59;;;;;;;5.60;3.60;;;;;;;;;;4932849;28;20039;-81
2023/06/21 14:47:25;;;;;;;4.25;3.00;;;;;;;;;;4906836;28;20050;-81
2023/06/21 14:49:53;;;;;;;5.03;3.65;;;;;;;;;;4917176;28;20070;-82
2023/06/21 14:52:19;;;;;;;4.75;3.58;;;;;;;;;;4914748;28;20516;-81
2023/06/21 14:54:45;;;;;;;5.70;3.50;;;;;;;;;;4905258;28;20075;-82
2023/06/21 14:57:12;;;;;;;5.00;3.72;;;;;;;;;;4914962;28;20523;-82
2023/06/21 14:59:38;;;;;;;6.10;3.72;;;;;;;;;;4916257;28;20510;-82
2023/06/21 15:02:03;;;;;;;5.03;3.58;;;;;;;;;;4931499;28;20032;-83
2023/06/21 15:04:29;;;;;;;5.65;3.90;;;;;;;;;;4918501;28;20535;-83
2023/06/21 15:06:55;;;;;;;5.95;3.60;;;;;;;;;;4908354;28;20039;-83
2023/06/21 15:09:36;;;;;;;5.45;3.75;;;;;;;;;;4917629;28;20120;-82
2023/06/21 15:12:02;;;;;;;4.65;3.35;;;;;;;;;;4921906;29;20040;-83
2023/06/21 15:14:28;;;;;;;4.30;3.13;;;;;;;;;;4932738;28;20035;-81
2023/06/21 15:16:55;;;;;;;5.25;3.67;;;;;;;;;;4913120;28;20035;-83
2023/06/21 15:19:20;;;;;;;4.90;3.38;;;;;;;;;;4914747;28;20054;-82
2023/06/21 15:21:47;;;;;;;5.10;3.58;;;;;;;;;;4900015;29;20031;-82
2023/06/21 15:24:12;;;;;;;4.63;3.25;;;;;;;;;;4925175;28;20115;-82
2023/06/21 15:26:50;;;;;;;5.00;3.17;;;;;;;;;;4928598;28;20115;-82
2023/06/21 15:29:15;;;;;;;4.53;3.22;;;;;;;;;;4949774;28;20484;-83
2023/06/21 15:31:41;;;;;;;4.93;3.35;;;;;;;;;;4924132;28;20046;-83
2023/06/21 15:34:12;;;;;;;4.68;2.92;;;;;;;;;;4889906;28;20397;-83